North Babylon, New York
Current Conditions -  °F | °C
As of 11:53 AM on Friday 28 Nov 2014 (Local Time) from KFRG Reporting Station
Few Clouds Few Clouds  
Wind Chill: 31°   Ceiling: Unl
Heat Index: 39°   Visibility: 10mi
Dew Point: 18°   Wind: 14mph
Humidity: 43%   Direction: 330°NNW
Pressure: 30.14"   Gusts: 24mph
Location:  40.74°N, 73.32°W
Report Text: KFRG 281653Z 33012G21KT 10SM FEW043 04/M08 A3014 RMK AO2 SLP205 T00391078
Loading
Personal Weather Stations






























Interactive Weather Map New forecast layout! Learn more

10-Day Weather Forecast

Advertisements
Track Severe Weather on mobile